sensor_id;sensor_type;location;lat;lon;timestamp;P1;durP1;ratioP1;P2;durP2;ratioP2
40072;SDS011;25774;52.256;9.356;2023-01-16T08:02:10;1.63;;;0.55;;
40072;SDS011;25774;52.256;9.356;2023-01-16T08:04:35;3.87;;;0.70;;
40072;SDS011;25774;52.256;9.356;2023-01-16T08:07:01;1.57;;;0.80;;
40072;SDS011;25774;52.256;9.356;2023-01-16T08:09:26;3.03;;;0.80;;
40072;SDS011;25774;52.256;9.356;2023-01-16T08:11:51;4.80;;;0.70;;
40072;SDS011;25774;52.256;9.356;2023-01-16T08:14:17;4.17;;;0.70;;
40072;SDS011;25774;52.256;9.356;2023-01-16T08:16:42;3.80;;;0.83;;
40072;SDS011;25774;52.256;9.356;2023-01-16T08:19:08;8.18;;;0.90;;
40072;SDS011;25774;52.256;9.356;2023-01-16T08:21:34;3.77;;;0.70;;
40072;SDS011;25774;52.256;9.356;2023-01-16T08:23:59;3.63;;;0.50;;
40072;SDS011;25774;52.256;9.356;2023-01-16T08:26:24;5.90;;;1.17;;
40072;SDS011;25774;52.256;9.356;2023-01-16T08:28:50;3.27;;;0.80;;
40072;SDS011;25774;52.256;9.356;2023-01-16T08:31:17;2.13;;;0.85;;
40072;SDS011;25774;52.256;9.356;2023-01-16T08:36:11;5.57;;;0.90;;
40072;SDS011;25774;52.256;9.356;2023-01-16T08:38:37;4.45;;;0.77;;
40072;SDS011;25774;52.256;9.356;2023-01-16T08:41:03;2.15;;;0.60;;
40072;SDS011;25774;52.256;9.356;2023-01-16T08:43:28;2.17;;;0.70;;
40072;SDS011;25774;52.256;9.356;2023-01-16T08:46:16;2.30;;;0.70;;
40072;SDS011;25774;52.256;9.356;2023-01-16T08:49:04;2.95;;;0.60;;
40072;SDS011;25774;52.256;9.356;2023-01-16T08:51:52;5.93;;;0.75;;
40072;SDS011;25774;52.256;9.356;2023-01-16T08:54:17;7.77;;;1.10;;
40072;SDS011;25774;52.256;9.356;2023-01-16T08:56:43;0.67;;;0.50;;
40072;SDS011;25774;52.256;9.356;2023-01-16T08:59:08;0.73;;;0.40;;
40072;SDS011;25774;52.256;9.356;2023-01-16T09:01:35;3.83;;;0.90;;
40072;SDS011;25774;52.256;9.356;2023-01-16T09:04:02;3.50;;;0.70;;
40072;SDS011;25774;52.256;9.356;2023-01-16T09:06:27;2.97;;;0.87;;
40072;SDS011;25774;52.256;9.356;2023-01-16T09:08:52;2.73;;;0.50;;
40072;SDS011;25774;52.256;9.356;2023-01-16T09:11:17;2.27;;;0.60;;
40072;SDS011;25774;52.256;9.356;2023-01-16T09:14:01;4.80;;;0.60;;
40072;SDS011;25774;52.256;9.356;2023-01-16T09:16:27;4.03;;;0.50;;
40072;SDS011;25774;52.256;9.356;2023-01-16T09:18:52;4.60;;;0.70;;
40072;SDS011;25774;52.256;9.356;2023-01-16T09:21:18;2.10;;;0.50;;
40072;SDS011;25774;52.256;9.356;2023-01-16T09:23:44;4.95;;;0.55;;
40072;SDS011;25774;52.256;9.356;2023-01-16T09:26:10;2.30;;;0.68;;
40072;SDS011;25774;52.256;9.356;2023-01-16T09:28:35;2.70;;;0.50;;
40072;SDS011;25774;52.256;9.356;2023-01-16T09:31:01;2.70;;;1.60;;
40072;SDS011;25774;52.256;9.356;2023-01-16T09:33:26;1.83;;;0.50;;
40072;SDS011;25774;52.256;9.356;2023-01-16T09:35:52;2.57;;;0.57;;
40072;SDS011;25774;52.256;9.356;2023-01-16T09:38:17;2.77;;;0.60;;
40072;SDS011;25774;52.256;9.356;2023-01-16T09:40:43;5.67;;;0.97;;
40072;SDS011;25774;52.256;9.356;2023-01-16T09:43:24;2.80;;;0.65;;
40072;SDS011;25774;52.256;9.356;2023-01-16T09:46:19;5.45;;;0.70;;
40072;SDS011;25774;52.256;9.356;2023-01-16T09:51:35;3.08;;;0.43;;
40072;SDS011;25774;52.256;9.356;2023-01-16T09:54:05;1.50;;;0.43;;
40072;SDS011;25774;52.256;9.356;2023-01-16T09:56:55;1.80;;;0.50;;
40072;SDS011;25774;52.256;9.356;2023-01-16T09:59:48;1.80;;;0.50;;
40072;SDS011;25774;52.256;9.356;2023-01-16T10:02:25;6.97;;;0.80;;
40072;SDS011;25774;52.256;9.356;2023-01-16T10:04:53;1.67;;;0.50;;
40072;SDS011;25774;52.256;9.356;2023-01-16T10:18:52;2.58;;;0.60;;
40072;SDS011;25774;52.256;9.356;2023-01-16T10:23:55;7.77;;;0.70;;
40072;SDS011;25774;52.256;9.356;2023-01-16T10:26:30;3.17;;;0.47;;
40072;SDS011;25774;52.256;9.356;2023-01-16T10:29:17;3.20;;;0.70;;
40072;SDS011;25774;52.256;9.356;2023-01-16T10:34:39;2.38;;;0.65;;
40072;SDS011;25774;52.256;9.356;2023-01-16T10:37:16;3.42;;;0.50;;
40072;SDS011;25774;52.256;9.356;2023-01-16T10:39:42;2.65;;;0.70;;
40072;SDS011;25774;52.256;9.356;2023-01-16T10:42:12;2.90;;;0.47;;
40072;SDS011;25774;52.256;9.356;2023-01-16T10:47:55;5.00;;;1.25;;
40072;SDS011;25774;52.256;9.356;2023-01-16T10:50:39;2.58;;;0.55;;
40072;SDS011;25774;52.256;9.356;2023-01-16T10:53:05;6.20;;;1.10;;
40072;SDS011;25774;52.256;9.356;2023-01-16T10:55:33;8.57;;;1.13;;
40072;SDS011;25774;52.256;9.356;2023-01-16T10:58:05;1.60;;;0.40;;
40072;SDS011;25774;52.256;9.356;2023-01-16T11:00:38;1.55;;;0.35;;
40072;SDS011;25774;52.256;9.356;2023-01-16T11:03:14;5.43;;;1.30;;
40072;SDS011;25774;52.256;9.356;2023-01-16T11:05:44;3.13;;;0.40;;
40072;SDS011;25774;52.256;9.356;2023-01-16T11:08:14;3.83;;;0.73;;
40072;SDS011;25774;52.256;9.356;2023-01-16T11:10:41;4.38;;;0.55;;
40072;SDS011;25774;52.256;9.356;2023-01-16T11:13:42;1.40;;;0.40;;
40072;SDS011;25774;52.256;9.356;2023-01-16T11:16:20;0.88;;;0.40;;
40072;SDS011;25774;52.256;9.356;2023-01-16T11:19:17;1.50;;;0.50;;
40072;SDS011;25774;52.256;9.356;2023-01-16T11:21:48;3.42;;;1.27;;
40072;SDS011;25774;52.256;9.356;2023-01-16T11:24:21;1.95;;;0.57;;
40072;SDS011;25774;52.256;9.356;2023-01-16T11:26:53;3.85;;;0.60;;
40072;SDS011;25774;52.256;9.356;2023-01-16T11:29:22;6.70;;;0.70;;
40072;SDS011;25774;52.256;9.356;2023-01-16T11:31:55;4.25;;;0.65;;
40072;SDS011;25774;52.256;9.356;2023-01-16T11:34:23;1.13;;;0.40;;
40072;SDS011;25774;52.256;9.356;2023-01-16T11:36:52;3.65;;;0.50;;
40072;SDS011;25774;52.256;9.356;2023-01-16T11:39:22;2.10;;;0.50;;
40072;SDS011;25774;52.256;9.356;2023-01-16T11:41:51;5.70;;;0.50;;
40072;SDS011;25774;52.256;9.356;2023-01-16T11:44:23;0.98;;;0.50;;
40072;SDS011;25774;52.256;9.356;2023-01-16T11:47:12;3.53;;;0.50;;
40072;SDS011;25774;52.256;9.356;2023-01-16T11:49:44;3.50;;;0.63;;
40072;SDS011;25774;52.256;9.356;2023-01-16T11:52:14;2.35;;;0.68;;
40072;SDS011;25774;52.256;9.356;2023-01-16T11:54:57;2.75;;;0.52;;
40072;SDS011;25774;52.256;9.356;2023-01-16T12:02:49;6.25;;;0.90;;
40072;SDS011;25774;52.256;9.356;2023-01-16T12:06:11;1.17;;;0.40;;
40072;SDS011;25774;52.256;9.356;2023-01-16T12:11:23;4.60;;;0.70;;
40072;SDS011;25774;52.256;9.356;2023-01-16T12:20:05;4.15;;;0.50;;
40072;SDS011;25774;52.256;9.356;2023-01-16T12:25:43;3.25;;;0.55;;
40072;SDS011;25774;52.256;9.356;2023-01-16T12:36:44;2.72;;;0.60;;
40072;SDS011;25774;52.256;9.356;2023-01-16T12:45:07;2.72;;;0.73;;
40072;SDS011;25774;52.256;9.356;2023-01-16T12:47:58;4.25;;;0.45;;
40072;SDS011;25774;52.256;9.356;2023-01-16T12:59:02;1.33;;;0.43;;
40072;SDS011;25774;52.256;9.356;2023-01-16T13:01:38;3.70;;;0.65;;
40072;SDS011;25774;52.256;9.356;2023-01-16T13:06:57;4.95;;;0.70;;
40072;SDS011;25774;52.256;9.356;2023-01-16T13:09:32;3.22;;;0.80;;
40072;SDS011;25774;52.256;9.356;2023-01-16T13:12:19;3.42;;;0.40;;
40072;SDS011;25774;52.256;9.356;2023-01-16T13:15:22;0.93;;;0.32;;
40072;SDS011;25774;52.256;9.356;2023-01-16T13:17:55;1.27;;;0.40;;
40072;SDS011;25774;52.256;9.356;2023-01-16T13:20:25;1.13;;;0.38;;
40072;SDS011;25774;52.256;9.356;2023-01-16T13:22:54;1.33;;;0.70;;
40072;SDS011;25774;52.256;9.356;2023-01-16T13:28:10;1.15;;;0.40;;
40072;SDS011;25774;52.256;9.356;2023-01-16T13:30:52;1.20;;;0.40;;
40072;SDS011;25774;52.256;9.356;2023-01-16T13:33:21;1.15;;;0.30;;
40072;SDS011;25774;52.256;9.356;2023-01-16T13:41:40;1.60;;;0.30;;
40072;SDS011;25774;52.256;9.356;2023-01-16T13:44:16;2.65;;;0.35;;
40072;SDS011;25774;52.256;9.356;2023-01-16T13:47:09;1.38;;;0.40;;
40072;SDS011;25774;52.256;9.356;2023-01-16T13:49:40;3.15;;;0.50;;
40072;SDS011;25774;52.256;9.356;2023-01-16T13:52:11;0.98;;;0.30;;
40072;SDS011;25774;52.256;9.356;2023-01-16T13:54:43;1.48;;;0.40;;
40072;SDS011;25774;52.256;9.356;2023-01-16T13:57:15;2.60;;;0.55;;
40072;SDS011;25774;52.256;9.356;2023-01-16T14:11:14;1.55;;;0.40;;
40072;SDS011;25774;52.256;9.356;2023-01-16T14:14:15;1.73;;;0.35;;
40072;SDS011;25774;52.256;9.356;2023-01-16T14:17:11;1.63;;;0.50;;
40072;SDS011;25774;52.256;9.356;2023-01-16T14:19:37;1.23;;;0.40;;
40072;SDS011;25774;52.256;9.356;2023-01-16T14:22:19;1.33;;;0.40;;
40072;SDS011;25774;52.256;9.356;2023-01-16T14:24:47;2.65;;;0.60;;
40072;SDS011;25774;52.256;9.356;2023-01-16T14:27:18;1.58;;;0.68;;
40072;SDS011;25774;52.256;9.356;2023-01-16T14:29:51;3.40;;;0.70;;
40072;SDS011;25774;52.256;9.356;2023-01-16T14:32:24;1.95;;;0.40;;
40072;SDS011;25774;52.256;9.356;2023-01-16T14:37:45;2.67;;;0.35;;
40072;SDS011;25774;52.256;9.356;2023-01-16T14:40:21;4.55;;;0.20;;
40072;SDS011;25774;52.256;9.356;2023-01-16T14:43:15;1.98;;;0.40;;
40072;SDS011;25774;52.256;9.356;2023-01-16T14:46:13;1.42;;;0.40;;
40072;SDS011;25774;52.256;9.356;2023-01-16T14:55:47;0.35;;;0.20;;
40072;SDS011;25774;52.256;9.356;2023-01-16T14:58:23;2.55;;;0.40;;
40072;SDS011;25774;52.256;9.356;2023-01-16T15:00:56;0.65;;;0.40;;
40072;SDS011;25774;52.256;9.356;2023-01-16T15:03:42;0.73;;;0.30;;
40072;SDS011;25774;52.256;9.356;2023-01-16T15:08:36;0.57;;;0.38;;
40072;SDS011;25774;52.256;9.356;2023-01-16T15:11:08;2.38;;;0.40;;
40072;SDS011;25774;52.256;9.356;2023-01-16T15:14:03;0.85;;;0.40;;
40072;SDS011;25774;52.256;9.356;2023-01-16T15:22:55;1.30;;;0.40;;
40072;SDS011;25774;52.256;9.356;2023-01-16T15:28:04;0.52;;;0.20;;
40072;SDS011;25774;52.256;9.356;2023-01-16T15:30:36;1.05;;;0.50;;
40072;SDS011;25774;52.256;9.356;2023-01-16T15:33:02;4.10;;;0.57;;
40072;SDS011;25774;52.256;9.356;2023-01-16T15:35:56;0.73;;;0.40;;
40072;SDS011;25774;52.256;9.356;2023-01-16T15:38:23;2.75;;;0.65;;
40072;SDS011;25774;52.256;9.356;2023-01-16T15:40:50;5.57;;;0.40;;
40072;SDS011;25774;52.256;9.356;2023-01-16T15:43:16;1.10;;;0.50;;
40072;SDS011;25774;52.256;9.356;2023-01-16T15:49:21;1.38;;;0.50;;
40072;SDS011;25774;52.256;9.356;2023-01-16T15:51:55;2.15;;;0.40;;
40072;SDS011;25774;52.256;9.356;2023-01-16T15:54:21;1.45;;;0.57;;
40072;SDS011;25774;52.256;9.356;2023-01-16T15:56:47;3.20;;;0.60;;
40072;SDS011;25774;52.256;9.356;2023-01-16T15:59:27;2.75;;;0.57;;
40072;SDS011;25774;52.256;9.356;2023-01-16T16:02:16;2.17;;;0.50;;
40072;SDS011;25774;52.256;9.356;2023-01-16T16:04:43;1.73;;;0.60;;
40072;SDS011;25774;52.256;9.356;2023-01-16T16:07:11;2.67;;;0.60;;
40072;SDS011;25774;52.256;9.356;2023-01-16T16:09:38;0.73;;;0.47;;
40072;SDS011;25774;52.256;9.356;2023-01-16T16:14:31;1.42;;;0.57;;
40072;SDS011;25774;52.256;9.356;2023-01-16T16:22:50;2.42;;;0.50;;
40072;SDS011;25774;52.256;9.356;2023-01-16T16:25:28;1.20;;;0.50;;
40072;SDS011;25774;52.256;9.356;2023-01-16T16:27:57;1.30;;;0.52;;
40072;SDS011;25774;52.256;9.356;2023-01-16T16:30:24;2.80;;;0.65;;
40072;SDS011;25774;52.256;9.356;2023-01-16T16:32:51;1.38;;;0.68;;
40072;SDS011;25774;52.256;9.356;2023-01-16T16:35:28;1.65;;;0.50;;
40072;SDS011;25774;52.256;9.356;2023-01-16T16:37:57;1.65;;;0.70;;
40072;SDS011;25774;52.256;9.356;2023-01-16T16:40:23;1.50;;;0.68;;
40072;SDS011;25774;52.256;9.356;2023-01-16T16:42:50;0.50;;;0.40;;
40072;SDS011;25774;52.256;9.356;2023-01-16T16:47:46;1.63;;;0.73;;
40072;SDS011;25774;52.256;9.356;2023-01-16T16:53:04;1.73;;;0.60;;
40072;SDS011;25774;52.256;9.356;2023-01-16T16:55:35;1.42;;;0.68;;
40072;SDS011;25774;52.256;9.356;2023-01-16T16:58:11;1.27;;;0.60;;
40072;SDS011;25774;52.256;9.356;2023-01-16T17:00:39;1.80;;;0.85;;
40072;SDS011;25774;52.256;9.356;2023-01-16T17:03:06;1.60;;;0.50;;
40072;SDS011;25774;52.256;9.356;2023-01-16T17:05:37;2.28;;;0.50;;
40072;SDS011;25774;52.256;9.356;2023-01-16T17:08:03;1.80;;;0.40;;
40072;SDS011;25774;52.256;9.356;2023-01-16T17:10:28;1.60;;;0.70;;
40072;SDS011;25774;52.256;9.356;2023-01-16T17:12:55;1.90;;;0.67;;
40072;SDS011;25774;52.256;9.356;2023-01-16T17:15:21;2.42;;;0.80;;
40072;SDS011;25774;52.256;9.356;2023-01-16T17:17:46;1.40;;;0.50;;
40072;SDS011;25774;52.256;9.356;2023-01-16T17:22:39;3.50;;;0.80;;
40072;SDS011;25774;52.256;9.356;2023-01-16T17:25:07;1.33;;;0.43;;
40072;SDS011;25774;52.256;9.356;2023-01-16T17:27:35;2.60;;;0.77;;
40072;SDS011;25774;52.256;9.356;2023-01-16T17:30:01;1.33;;;0.43;;
40072;SDS011;25774;52.256;9.356;2023-01-16T17:32:27;1.53;;;0.50;;
40072;SDS011;25774;52.256;9.356;2023-01-16T17:34:55;1.98;;;0.65;;
40072;SDS011;25774;52.256;9.356;2023-01-16T17:37:21;2.22;;;0.70;;
40072;SDS011;25774;52.256;9.356;2023-01-16T17:39:46;1.63;;;0.50;;
40072;SDS011;25774;52.256;9.356;2023-01-16T17:42:11;1.27;;;0.60;;
40072;SDS011;25774;52.256;9.356;2023-01-16T17:44:37;2.53;;;0.93;;
40072;SDS011;25774;52.256;9.356;2023-01-16T17:47:25;1.13;;;0.50;;
40072;SDS011;25774;52.256;9.356;2023-01-16T17:49:52;3.80;;;0.77;;
40072;SDS011;25774;52.256;9.356;2023-01-16T17:52:36;0.80;;;0.40;;
40072;SDS011;25774;52.256;9.356;2023-01-16T17:55:01;2.07;;;0.50;;
40072;SDS011;25774;52.256;9.356;2023-01-16T17:57:45;3.97;;;0.85;;
40072;SDS011;25774;52.256;9.356;2023-01-16T18:00:11;1.77;;;0.70;;
40072;SDS011;25774;52.256;9.356;2023-01-16T18:02:36;1.23;;;0.60;;
40072;SDS011;25774;52.256;9.356;2023-01-16T18:05:03;6.20;;;0.70;;
40072;SDS011;25774;52.256;9.356;2023-01-16T18:07:29;2.90;;;0.57;;
40072;SDS011;25774;52.256;9.356;2023-01-16T18:09:54;0.67;;;0.40;;
40072;SDS011;25774;52.256;9.356;2023-01-16T18:12:20;2.47;;;0.57;;
40072;SDS011;25774;52.256;9.356;2023-01-16T18:15:04;1.13;;;0.60;;
40072;SDS011;25774;52.256;9.356;2023-01-16T18:17:48;0.77;;;0.40;;
40072;SDS011;25774;52.256;9.356;2023-01-16T18:20:16;2.13;;;0.52;;
40072;SDS011;25774;52.256;9.356;2023-01-16T18:25:07;2.38;;;0.60;;
40072;SDS011;25774;52.256;9.356;2023-01-16T18:27:33;4.10;;;0.90;;
40072;SDS011;25774;52.256;9.356;2023-01-16T18:29:59;1.33;;;0.57;;
40072;SDS011;25774;52.256;9.356;2023-01-16T18:32:25;3.80;;;0.70;;
40072;SDS011;25774;52.256;9.356;2023-01-16T18:34:58;1.13;;;0.52;;
40072;SDS011;25774;52.256;9.356;2023-01-16T18:39:58;1.33;;;0.63;;
40072;SDS011;25774;52.256;9.356;2023-01-16T18:42:42;1.77;;;0.70;;
40072;SDS011;25774;52.256;9.356;2023-01-16T18:45:26;2.22;;;0.73;;
40072;SDS011;25774;52.256;9.356;2023-01-16T18:48:11;1.10;;;0.55;;
40072;SDS011;25774;52.256;9.356;2023-01-16T18:50:55;2.05;;;0.40;;
40072;SDS011;25774;52.256;9.356;2023-01-16T18:53:41;4.05;;;0.65;;
40072;SDS011;25774;52.256;9.356;2023-01-16T18:56:27;1.02;;;0.50;;
40072;SDS011;25774;52.256;9.356;2023-01-16T18:59:14;2.72;;;0.88;;
40072;SDS011;25774;52.256;9.356;2023-01-16T19:02:01;1.80;;;0.70;;
40072;SDS011;25774;52.256;9.356;2023-01-16T19:04:43;1.50;;;0.55;;
40072;SDS011;25774;52.256;9.356;2023-01-16T19:07:10;1.10;;;0.57;;
40072;SDS011;25774;52.256;9.356;2023-01-16T19:09:40;3.95;;;0.60;;
40072;SDS011;25774;52.256;9.356;2023-01-16T19:12:06;1.13;;;0.50;;
40072;SDS011;25774;52.256;9.356;2023-01-16T19:14:34;1.30;;;0.60;;
40072;SDS011;25774;52.256;9.356;2023-01-16T19:17:01;1.10;;;0.50;;
40072;SDS011;25774;52.256;9.356;2023-01-16T19:19:27;0.87;;;0.60;;
40072;SDS011;25774;52.256;9.356;2023-01-16T19:21:52;2.65;;;0.70;;
40072;SDS011;25774;52.256;9.356;2023-01-16T19:24:18;1.98;;;0.60;;
40072;SDS011;25774;52.256;9.356;2023-01-16T19:26:44;1.23;;;0.80;;
40072;SDS011;25774;52.256;9.356;2023-01-16T19:29:15;0.70;;;0.55;;
40072;SDS011;25774;52.256;9.356;2023-01-16T19:31:42;4.28;;;0.50;;
40072;SDS011;25774;52.256;9.356;2023-01-16T19:34:08;2.08;;;0.60;;
40072;SDS011;25774;52.256;9.356;2023-01-16T19:36:34;2.13;;;0.93;;
40072;SDS011;25774;52.256;9.356;2023-01-16T19:39:00;2.10;;;0.85;;
40072;SDS011;25774;52.256;9.356;2023-01-16T19:41:27;2.65;;;0.82;;
40072;SDS011;25774;52.256;9.356;2023-01-16T19:44:11;2.53;;;0.80;;
40072;SDS011;25774;52.256;9.356;2023-01-16T19:46:55;1.55;;;0.70;;
40072;SDS011;25774;52.256;9.356;2023-01-16T19:49:21;3.13;;;1.05;;
40072;SDS011;25774;52.256;9.356;2023-01-16T19:51:46;1.07;;;0.63;;
40072;SDS011;25774;52.256;9.356;2023-01-16T19:54:13;2.10;;;0.90;;
40072;SDS011;25774;52.256;9.356;2023-01-16T19:56:38;2.15;;;0.68;;
40072;SDS011;25774;52.256;9.356;2023-01-16T19:59:05;1.73;;;0.88;;
40072;SDS011;25774;52.256;9.356;2023-01-16T20:01:55;0.95;;;0.70;;
40072;SDS011;25774;52.256;9.356;2023-01-16T20:04:23;2.65;;;0.68;;
40072;SDS011;25774;52.256;9.356;2023-01-16T20:06:49;2.40;;;0.70;;
40072;SDS011;25774;52.256;9.356;2023-01-16T20:11:41;3.63;;;0.90;;
40072;SDS011;25774;52.256;9.356;2023-01-16T20:14:25;1.55;;;0.73;;
40072;SDS011;25774;52.256;9.356;2023-01-16T20:19:18;1.80;;;0.90;;
40072;SDS011;25774;52.256;9.356;2023-01-16T20:21:43;1.90;;;0.80;;
40072;SDS011;25774;52.256;9.356;2023-01-16T20:24:09;2.53;;;0.90;;
40072;SDS011;25774;52.256;9.356;2023-01-16T20:26:35;0.97;;;0.70;;
40072;SDS011;25774;52.256;9.356;2023-01-16T20:29:00;1.10;;;0.70;;
40072;SDS011;25774;52.256;9.356;2023-01-16T20:31:26;2.30;;;0.90;;
40072;SDS011;25774;52.256;9.356;2023-01-16T20:33:54;1.67;;;0.80;;
40072;SDS011;25774;52.256;9.356;2023-01-16T20:36:19;1.50;;;0.77;;
40072;SDS011;25774;52.256;9.356;2023-01-16T20:38:45;2.20;;;0.90;;
40072;SDS011;25774;52.256;9.356;2023-01-16T20:41:16;3.13;;;0.80;;
40072;SDS011;25774;52.256;9.356;2023-01-16T20:44:02;1.83;;;0.90;;
40072;SDS011;25774;52.256;9.356;2023-01-16T20:46:57;2.78;;;0.98;;
40072;SDS011;25774;52.256;9.356;2023-01-16T20:49:22;5.30;;;0.93;;
40072;SDS011;25774;52.256;9.356;2023-01-16T20:51:47;2.43;;;1.10;;
40072;SDS011;25774;52.256;9.356;2023-01-16T20:54:13;2.47;;;1.00;;
40072;SDS011;25774;52.256;9.356;2023-01-16T20:56:38;2.97;;;1.10;;
40072;SDS011;25774;52.256;9.356;2023-01-16T20:59:07;4.17;;;1.50;;
40072;SDS011;25774;52.256;9.356;2023-01-16T21:01:33;2.53;;;1.05;;
40072;SDS011;25774;52.256;9.356;2023-01-16T21:03:58;2.03;;;0.90;;
40072;SDS011;25774;52.256;9.356;2023-01-16T21:06:24;2.90;;;1.10;;
40072;SDS011;25774;52.256;9.356;2023-01-16T21:08:49;5.43;;;0.90;;
40072;SDS011;25774;52.256;9.356;2023-01-16T21:11:14;2.27;;;1.03;;
40072;SDS011;25774;52.256;9.356;2023-01-16T21:13:58;2.55;;;1.02;;
40072;SDS011;25774;52.256;9.356;2023-01-16T21:16:39;1.73;;;1.00;;
40072;SDS011;25774;52.256;9.356;2023-01-16T21:19:24;2.88;;;1.67;;
40072;SDS011;25774;52.256;9.356;2023-01-16T21:22:23;2.72;;;1.20;;
40072;SDS011;25774;52.256;9.356;2023-01-16T21:24:51;4.68;;;1.20;;
40072;SDS011;25774;52.256;9.356;2023-01-16T21:27:17;1.90;;;1.02;;
40072;SDS011;25774;52.256;9.356;2023-01-16T21:29:43;4.10;;;1.10;;
40072;SDS011;25774;52.256;9.356;2023-01-16T21:32:09;1.73;;;0.85;;
40072;SDS011;25774;52.256;9.356;2023-01-16T21:34:35;1.70;;;1.13;;
40072;SDS011;25774;52.256;9.356;2023-01-16T21:37:01;2.28;;;1.20;;
40072;SDS011;25774;52.256;9.356;2023-01-16T21:39:27;1.70;;;1.00;;
40072;SDS011;25774;52.256;9.356;2023-01-16T21:41:52;2.17;;;1.10;;
40072;SDS011;25774;52.256;9.356;2023-01-16T21:44:37;1.90;;;0.80;;
40072;SDS011;25774;52.256;9.356;2023-01-16T21:47:21;1.23;;;0.88;;
40072;SDS011;25774;52.256;9.356;2023-01-16T21:49:47;1.73;;;1.00;;
40072;SDS011;25774;52.256;9.356;2023-01-16T21:52:13;2.00;;;1.00;;
40072;SDS011;25774;52.256;9.356;2023-01-16T21:54:39;1.83;;;1.00;;
40072;SDS011;25774;52.256;9.356;2023-01-16T21:57:04;2.87;;;1.17;;
40072;SDS011;25774;52.256;9.356;2023-01-16T21:59:29;2.07;;;1.10;;
40072;SDS011;25774;52.256;9.356;2023-01-16T22:01:55;1.57;;;1.00;;
40072;SDS011;25774;52.256;9.356;2023-01-16T22:04:20;1.83;;;1.00;;
40072;SDS011;25774;52.256;9.356;2023-01-16T22:06:46;2.33;;;1.40;;
40072;SDS011;25774;52.256;9.356;2023-01-16T22:09:12;2.10;;;1.20;;
40072;SDS011;25774;52.256;9.356;2023-01-16T22:11:37;2.15;;;1.10;;
40072;SDS011;25774;52.256;9.356;2023-01-16T22:14:22;1.90;;;1.10;;
40072;SDS011;25774;52.256;9.356;2023-01-16T22:17:08;3.05;;;1.20;;
40072;SDS011;25774;52.256;9.356;2023-01-16T22:19:53;1.98;;;1.20;;
40072;SDS011;25774;52.256;9.356;2023-01-16T22:22:37;1.67;;;1.05;;
40072;SDS011;25774;52.256;9.356;2023-01-16T22:25:03;1.40;;;1.00;;
40072;SDS011;25774;52.256;9.356;2023-01-16T22:27:29;1.65;;;0.98;;
40072;SDS011;25774;52.256;9.356;2023-01-16T22:32:21;1.88;;;1.23;;
40072;SDS011;25774;52.256;9.356;2023-01-16T22:37:14;1.20;;;0.73;;
40072;SDS011;25774;52.256;9.356;2023-01-16T22:39:40;3.88;;;1.00;;
40072;SDS011;25774;52.256;9.356;2023-01-16T22:42:05;1.87;;;0.97;;
40072;SDS011;25774;52.256;9.356;2023-01-16T22:44:31;1.73;;;0.90;;
40072;SDS011;25774;52.256;9.356;2023-01-16T22:47:15;1.75;;;1.10;;
40072;SDS011;25774;52.256;9.356;2023-01-16T22:49:41;1.63;;;1.00;;
40072;SDS011;25774;52.256;9.356;2023-01-16T22:52:06;1.30;;;0.70;;
40072;SDS011;25774;52.256;9.356;2023-01-16T22:54:32;1.92;;;1.15;;
40072;SDS011;25774;52.256;9.356;2023-01-16T22:56:58;1.53;;;1.10;;
40072;SDS011;25774;52.256;9.356;2023-01-16T22:59:23;2.57;;;1.07;;
40072;SDS011;25774;52.256;9.356;2023-01-16T23:01:48;2.93;;;1.10;;
40072;SDS011;25774;52.256;9.356;2023-01-16T23:04:14;1.60;;;1.00;;
40072;SDS011;25774;52.256;9.356;2023-01-16T23:06:39;1.63;;;1.00;;
40072;SDS011;25774;52.256;9.356;2023-01-16T23:09:04;1.60;;;1.07;;
40072;SDS011;25774;52.256;9.356;2023-01-16T23:11:31;2.60;;;1.50;;
40072;SDS011;25774;52.256;9.356;2023-01-16T23:14:02;1.83;;;1.13;;
40072;SDS011;25774;52.256;9.356;2023-01-16T23:16:30;2.25;;;1.33;;
40072;SDS011;25774;52.256;9.356;2023-01-16T23:18:58;2.92;;;1.20;;
40072;SDS011;25774;52.256;9.356;2023-01-16T23:21:25;2.38;;;1.40;;
40072;SDS011;25774;52.256;9.356;2023-01-16T23:23:51;3.10;;;1.55;;
40072;SDS011;25774;52.256;9.356;2023-01-16T23:26:16;3.07;;;1.53;;
40072;SDS011;25774;52.256;9.356;2023-01-16T23:28:43;3.30;;;1.87;;
40072;SDS011;25774;52.256;9.356;2023-01-16T23:31:15;2.95;;;1.73;;
40072;SDS011;25774;52.256;9.356;2023-01-16T23:33:40;4.03;;;2.50;;
40072;SDS011;25774;52.256;9.356;2023-01-16T23:38:40;3.92;;;2.20;;
40072;SDS011;25774;52.256;9.356;2023-01-16T23:41:07;5.63;;;2.50;;
40072;SDS011;25774;52.256;9.356;2023-01-16T23:43:35;4.18;;;2.00;;
40072;SDS011;25774;52.256;9.356;2023-01-16T23:46:19;5.55;;;2.28;;
40072;SDS011;25774;52.256;9.356;2023-01-16T23:48:49;4.18;;;2.33;;
40072;SDS011;25774;52.256;9.356;2023-01-16T23:51:15;4.38;;;2.80;;
40072;SDS011;25774;52.256;9.356;2023-01-16T23:53:41;5.32;;;3.03;;
40072;SDS011;25774;52.256;9.356;2023-01-16T23:56:07;6.93;;;4.03;;
40072;SDS011;25774;52.256;9.356;2023-01-16T23:58:32;6.90;;;4.47;;
